Hamnavoe — VSTY7 — position and weather

sailwx.info

Track history (hours):
 
Tides and Currents Weather Stations Pressure Air Temp Water Temp Dewpoint Dewpoint Depression Visibility Wind Speed Wind Dir Waves Ship Positions

Hamnavoe

Operator: NorthLink Orkey & Shetland Ferries Ltd

Last reported at 2019-Sep-22 00:27 UTC. Time now 2019-Sep-22 00:32 UTC.
Position N 58°58' W 003°18'.

Length 112 m; draft 4.3 m.

Type: Ship. MMSI: 235449000.

Date/timePositionNaut miles runAvg speedWind from/ knotsBaromVisibWave heightAir tempDewpointWater temp
2019-Sep-22 00:27N 58°58' W 003°18'0 0.0
2019-Sep-22 00:00N 58°58' W 003°18'0 0.0
2019-Sep-21 23:27N 58°58' W 003°18'0 0.0
2019-Sep-21 23:00N 58°58' W 003°18'0 0.0
2019-Sep-21 22:30N 58°58' W 003°18'0 0.0
2019-Sep-21 21:57N 58°58' W 003°18'0 0.0
2019-Sep-21 21:27N 58°58' W 003°18'0 0.0
2019-Sep-21 20:57N 58°58' W 003°18'0 0.0
2019-Sep-21 20:27N 58°58' W 003°18'0 0.0
2019-Sep-21 19:57N 58°58' W 003°18'0 0.0
2019-Sep-21 19:27N 58°58' W 003°18'2 5.1
2019-Sep-21 19:00N 58°57' W 003°22'917.8
2019-Sep-21 18:30N 58°49' W 003°29'918.8
2019-Sep-21 18:01N 58°39' W 003°31'3 5.6
2019-Sep-21 17:30N 58°37' W 003°32'1 1.5
2019-Sep-21 17:00N 58°37' W 003°32'917.2
2019-Sep-21 16:30N 58°46' W 003°30'917.7
2019-Sep-21 16:00N 58°54' W 003°26'611.1
2019-Sep-21 15:30N 58°58' W 003°18'0 0.0
2019-Sep-21 15:00N 58°58' W 003°18'0 0.0
2019-Sep-21 14:30N 58°58' W 003°18'0 0.0
2019-Sep-21 14:00N 58°58' W 003°18'2 3.2
2019-Sep-21 13:30N 58°57' W 003°20'816.1
2019-Sep-21 13:00N 58°50' W 003°28'918.6
2019-Sep-21 12:30N 58°41' W 003°30'4 8.5
2019-Sep-21 12:00N 58°37' W 003°32'0 0.2
2019-Sep-21 11:30N 58°37' W 003°32'917.2
2019-Sep-21 11:00N 58°45' W 003°30'918.3
2019-Sep-21 10:30N 58°54' W 003°27'611.8
2019-Sep-21 10:00N 58°58' W 003°18'0 0.2
2019-Sep-21 09:31N 58°58' W 003°18'1 1.6
2019-Sep-21 09:01N 58°57' W 003°17'816.0
2019-Sep-21 08:30N 58°51' W 003°28'1019.0
2019-Sep-21 08:00N 58°42' W 003°31'510.7
2019-Sep-21 07:30N 58°37' W 003°32'0 0.0
2019-Sep-21 07:01N 58°37' W 003°32'814.9
2019-Sep-21 06:30N 58°44' W 003°30'917.4
2019-Sep-21 06:01N 58°53' W 003°28'714.2
2019-Sep-21 05:31N 58°58' W 003°18'0 0.5
2019-Sep-21 05:00N 58°58' W 003°18'0 0.0
2019-Sep-21 04:30N 58°58' W 003°18'0 0.0
2019-Sep-21 04:00N 58°58' W 003°18'0 0.0
2019-Sep-21 03:30N 58°58' W 003°18'0 0.0
2019-Sep-21 03:00N 58°58' W 003°18'0 0.0
2019-Sep-21 02:30N 58°58' W 003°18'0 0.0
2019-Sep-21 02:00N 58°58' W 003°18'0 0.0
2019-Sep-21 01:30N 58°58' W 003°18'0 0.0
2019-Sep-21 00:57N 58°58' W 003°18'0 0.0
2019-Sep-21 00:30N 58°58' W 003°18'0 0.0
2019-Sep-20 23:57N 58°58' W 003°18'0 0.0
2019-Sep-20 23:30N 58°58' W 003°18'0 0.0
2019-Sep-20 23:00N 58°58' W 003°18'0 0.0
2019-Sep-20 22:30N 58°58' W 003°18'0 0.0
2019-Sep-20 22:00N 58°58' W 003°18'0 0.0
2019-Sep-20 21:30N 58°58' W 003°18'0 0.0
2019-Sep-20 21:00N 58°58' W 003°18'0 0.0
2019-Sep-20 20:30N 58°58' W 003°18'0 0.0
2019-Sep-20 19:57N 58°58' W 003°18'0 0.0
2019-Sep-20 19:30N 58°58' W 003°18'5 9.7
2019-Sep-20 19:00N 58°55' W 003°26'918.7
2019-Sep-20 18:30N 58°46' W 003°30'918.2
2019-Sep-20 18:00N 58°37' W 003°32'1 1.3
2019-Sep-20 17:30N 58°37' W 003°32'0 0.7
2019-Sep-20 17:00N 58°37' W 003°32'918.4
2019-Sep-20 16:30N 58°46' W 003°30'917.9
2019-Sep-20 16:00N 58°55' W 003°26'510.4
2019-Sep-20 15:30N 58°58' W 003°18'0 0.0
2019-Sep-20 14:59N 58°58' W 003°18'0 0.0
2019-Sep-20 14:30N 58°58' W 003°18'0 0.0
2019-Sep-20 14:00N 58°58' W 003°18'0 0.0
2019-Sep-20 13:30N 58°58' W 003°18'0 0.0
2019-Sep-20 13:00N 58°58' W 003°18'0 0.0
2019-Sep-20 12:27N 58°58' W 003°18'0 0.0
2019-Sep-20 12:00N 58°58' W 003°18'0 0.0
2019-Sep-20 11:30N 58°58' W 003°18'0 0.0
2019-Sep-20 11:00N 58°58' W 003°18'0 0.0
2019-Sep-20 10:30N 58°58' W 003°18'0 0.0
2019-Sep-20 10:00N 58°58' W 003°18'0 0.0
2019-Sep-20 09:30N 58°58' W 003°18'1 2.3
2019-Sep-20 09:00N 58°57' W 003°19'816.2
2019-Sep-20 08:30N 58°50' W 003°28'918.5
2019-Sep-20 08:00N 58°41' W 003°31'5 9.0
2019-Sep-20 07:30N 58°37' W 003°32'0 0.2
2019-Sep-20 07:00N 58°37' W 003°32'816.2
2019-Sep-20 06:30N 58°45' W 003°30'917.6
2019-Sep-20 06:00N 58°53' W 003°27'713.2
2019-Sep-20 05:30N 58°58' W 003°18'0 0.4
2019-Sep-20 04:59N 58°58' W 003°18'0 0.0
2019-Sep-20 04:26N 58°58' W 003°18'0 0.0
2019-Sep-20 03:56N 58°58' W 003°18'0 0.0
2019-Sep-20 03:20N 58°58' W 003°18'0 0.0
2019-Sep-20 02:56N 58°58' W 003°18'0 0.0
2019-Sep-20 02:26N 58°58' W 003°18'0 0.0
2019-Sep-20 01:56N 58°58' W 003°18'0 0.0
2019-Sep-20 01:26N 58°58' W 003°18'0 0.0
2019-Sep-20 00:56N 58°58' W 003°18'0 0.0
2019-Sep-20 00:26N 58°58' W 003°18'0 0.0
2019-Sep-19 23:56N 58°58' W 003°18'0 0.0
2019-Sep-19 23:26N 58°58' W 003°18'0 0.0
2019-Sep-19 22:56N 58°58' W 003°18'0 0.0
2019-Sep-19 22:26N 58°58' W 003°18'0 0.0
2019-Sep-19 21:56N 58°58' W 003°18'0 0.0
2019-Sep-19 21:26N 58°58' W 003°18'0 0.0
2019-Sep-19 20:56N 58°58' W 003°18'0 0.0
2019-Sep-19 20:26N 58°58' W 003°18'0 0.0
2019-Sep-19 19:56N 58°58' W 003°18'0 0.7
2019-Sep-19 19:30N 58°58' W 003°18'713.6
2019-Sep-19 19:00N 58°53' W 003°27'918.4
2019-Sep-19 18:31N 58°44' W 003°30'714.3
2019-Sep-19 18:00N 58°37' W 003°32'0 0.0
2019-Sep-19 17:30N 58°37' W 003°32'3 6.4
2019-Sep-19 17:00N 58°40' W 003°32'918.3
2019-Sep-19 16:30N 58°49' W 003°29'816.4
2019-Sep-19 16:00N 58°56' W 003°23'3 5.9
2019-Sep-19 15:29N 58°58' W 003°18'0 0.0
2019-Sep-19 15:00N 58°58' W 003°18'0 0.0
2019-Sep-19 14:27N 58°58' W 003°18'0 0.0
2019-Sep-19 13:57N 58°58' W 003°18'0 0.0
2019-Sep-19 13:30N 58°58' W 003°18'0 0.0
2019-Sep-19 13:00N 58°58' W 003°18'0 0.0
2019-Sep-19 12:30N 58°58' W 003°18'0 0.0
2019-Sep-19 11:59N 58°58' W 003°18'0 0.0
2019-Sep-19 11:29N 58°58' W 003°18'0 0.0
2019-Sep-19 10:59N 58°58' W 003°18'0 0.0
2019-Sep-19 10:29N 58°58' W 003°18'0 0.0
2019-Sep-19 09:59N 58°58' W 003°18'0 0.0
2019-Sep-19 09:29N 58°58' W 003°18'0 0.8
2019-Sep-19 09:00N 58°57' W 003°18'815.2
2019-Sep-19 08:31N 58°52' W 003°28'918.4
2019-Sep-19 08:00N 58°43' W 003°30'612.7
2019-Sep-19 07:31N 58°37' W 003°32'0 0.0
2019-Sep-19 07:00N 58°37' W 003°32'713.2
2019-Sep-19 06:30N 58°43' W 003°30'918.1
2019-Sep-19 06:00N 58°52' W 003°28'714.7
2019-Sep-19 05:30N 58°57' W 003°18'0 0.8
2019-Sep-19 05:00N 58°58' W 003°18'0 0.0
2019-Sep-19 04:30N 58°58' W 003°18'0 0.0
2019-Sep-19 04:00N 58°58' W 003°18'0 0.0
2019-Sep-19 03:30N 58°58' W 003°18'0 0.0
2019-Sep-19 03:00N 58°58' W 003°18'0 0.0
2019-Sep-19 02:27N 58°58' W 003°18'0 0.0
2019-Sep-19 01:57N 58°58' W 003°18'0 0.0
2019-Sep-19 01:30N 58°58' W 003°18'0 0.0
2019-Sep-19 00:57N 58°58' W 003°18'0 0.0
2019-Sep-19 00:30N 58°58' W 003°18'0 0.0
2019-Sep-18 23:57N 58°58' W 003°18'0 0.0
2019-Sep-18 23:30N 58°58' W 003°18'0 0.0
2019-Sep-18 23:00N 58°58' W 003°18'0 0.0
2019-Sep-18 22:30N 58°58' W 003°18'0 0.0
2019-Sep-18 22:00N 58°58' W 003°18'0 0.0
2019-Sep-18 21:30N 58°58' W 003°18'0 0.0
2019-Sep-18 21:00N 58°58' W 003°18'0 0.0
2019-Sep-18 20:30N 58°58' W 003°18'0 0.0
2019-Sep-18 19:57N 58°58' W 003°18'0 0.0
2019-Sep-18 19:30N 58°58' W 003°18'5 9.3
2019-Sep-18 19:00N 58°55' W 003°25'918.2
2019-Sep-18 18:30N 58°46' W 003°29'918.0
2019-Sep-18 18:00N 58°38' W 003°31'1 2.2
2019-Sep-18 17:30N 58°37' W 003°32'2 3.7
2019-Sep-18 17:00N 58°38' W 003°31'917.4
2019-Sep-18 16:30N 58°47' W 003°31'917.7
2019-Sep-18 16:00N 58°56' W 003°26'5 9.2
2019-Sep-18 15:30N 58°58' W 003°18'0 0.0
2019-Sep-18 15:00N 58°58' W 003°18'0 0.0
2019-Sep-18 14:30N 58°58' W 003°18'0 0.0
2019-Sep-18 14:00N 58°58' W 003°18'0 0.0
2019-Sep-18 13:30N 58°58' W 003°18'0 0.0
2019-Sep-18 12:57N 58°58' W 003°18'0 0.0
2019-Sep-18 12:30N 58°58' W 003°18'0 0.0
2019-Sep-18 12:00N 58°58' W 003°18'0 0.0
2019-Sep-18 11:30N 58°58' W 003°18'0 0.0
2019-Sep-18 11:00N 58°58' W 003°18'0 0.0
2019-Sep-18 10:30N 58°58' W 003°18'0 0.0
2019-Sep-18 10:00N 58°58' W 003°18'0 0.0
2019-Sep-18 09:30N 58°58' W 003°18'1 1.2
2019-Sep-18 09:00N 58°57' W 003°18'714.6
2019-Sep-18 08:30N 58°52' W 003°27'917.6
2019-Sep-18 08:00N 58°43' W 003°30'713.2
2019-Sep-18 07:30N 58°37' W 003°32'0 0.0
2019-Sep-18 07:00N 58°37' W 003°32'611.8
2019-Sep-18 06:30N 58°42' W 003°31'917.9
2019-Sep-18 06:00N 58°51' W 003°28'816.1
2019-Sep-18 05:30N 58°57' W 003°17'1 1.2
2019-Sep-18 04:58N 58°58' W 003°18'0 0.0
2019-Sep-18 04:25N 58°58' W 003°18'0 0.0
2019-Sep-18 03:55N 58°58' W 003°18'0 0.0
2019-Sep-18 03:25N 58°58' W 003°18'0 0.0
2019-Sep-18 02:55N 58°58' W 003°18'0 0.0
2019-Sep-18 02:25N 58°58' W 003°18'0 0.0
2019-Sep-18 01:55N 58°58' W 003°18'0 0.0
2019-Sep-18 01:25N 58°58' W 003°18'0 0.0
2019-Sep-18 00:55N 58°58' W 003°18'0 0.0
2019-Sep-18 00:28N 58°58' W 003°18'0 0.0
2019-Sep-17 23:58N 58°58' W 003°18'0 0.0
2019-Sep-17 23:25N 58°58' W 003°18'0 0.0
2019-Sep-17 22:58N 58°58' W 003°18'0 0.0
2019-Sep-17 22:25N 58°58' W 003°18'0 0.0
2019-Sep-17 21:58N 58°58' W 003°18'0 0.0
2019-Sep-17 21:28N 58°58' W 003°18'0 0.0
2019-Sep-17 20:58N 58°58' W 003°18'0 0.0
2019-Sep-17 20:28N 58°58' W 003°18'0 0.0
2019-Sep-17 19:58N 58°58' W 003°18'0 0.0
2019-Sep-17 19:30N 58°58' W 003°18'612.4
2019-Sep-17 19:00N 58°54' W 003°27'917.6
2019-Sep-17 18:30N 58°45' W 003°30'816.8
2019-Sep-17 18:00N 58°37' W 003°32'0 0.4
2019-Sep-17 17:30N 58°37' W 003°32'2 4.9
2019-Sep-17 17:00N 58°39' W 003°31'918.0
2019-Sep-17 16:30N 58°48' W 003°29'917.5
2019-Sep-17 16:00N 58°56' W 003°24'4 7.4
2019-Sep-17 15:30N 58°58' W 003°18'0 0.0
2019-Sep-17 15:00N 58°58' W 003°18'0 0.0
2019-Sep-17 14:30N 58°58' W 003°18'0 0.0
2019-Sep-17 14:00N 58°58' W 003°18'0 0.0
2019-Sep-17 13:30N 58°58' W 003°18'0 0.0
2019-Sep-17 13:00N 58°58' W 003°18'0 0.0
2019-Sep-17 12:30N 58°58' W 003°18'0 0.0
2019-Sep-17 12:00N 58°58' W 003°18'0 0.0
2019-Sep-17 11:30N 58°58' W 003°18'0 0.0
2019-Sep-17 11:00N 58°58' W 003°18'0 0.0
2019-Sep-17 10:30N 58°58' W 003°18'0 0.0
2019-Sep-17 10:00N 58°58' W 003°18'3 6.6
2019-Sep-17 09:30N 58°55' W 003°14'816.6
2019-Sep-17 09:00N 58°48' W 003°07'918.8
2019-Sep-17 08:30N 58°43' W 003°23'815.8
2019-Sep-17 08:00N 58°37' W 003°32'0 0.0
2019-Sep-17 07:30N 58°37' W 003°32'1 1.3
2019-Sep-17 07:00N 58°37' W 003°32'917.7
2019-Sep-17 06:30N 58°46' W 003°28'917.3
2019-Sep-17 06:00N 58°55' W 003°28'612.2
2019-Sep-17 05:30N 58°58' W 003°18'0 0.4
2019-Sep-17 04:53N 58°58' W 003°18'0 0.0
2019-Sep-17 04:29N 58°58' W 003°18'0 0.0
2019-Sep-17 03:59N 58°58' W 003°18'0 0.0
2019-Sep-17 03:26N 58°58' W 003°18'0 0.0
2019-Sep-17 02:59N 58°58' W 003°18'0 0.0
2019-Sep-17 02:29N 58°58' W 003°18'0 0.0
2019-Sep-17 01:59N 58°58' W 003°18'0 0.0
2019-Sep-17 01:29N 58°58' W 003°18'0 0.0
2019-Sep-17 00:56N 58°58' W 003°18'0 0.0
2019-Sep-17 00:29N 58°58' W 003°18'0 0.0
2019-Sep-16 23:59N 58°58' W 003°18'0 0.0
2019-Sep-16 23:29N 58°58' W 003°18'0 0.0
2019-Sep-16 22:59N 58°58' W 003°18'0 0.0
2019-Sep-16 22:29N 58°58' W 003°18'0 0.0
2019-Sep-16 21:59N 58°58' W 003°18'0 0.0
2019-Sep-16 21:29N 58°58' W 003°18'0 0.0
2019-Sep-16 20:59N 58°58' W 003°18'0 0.0
2019-Sep-16 20:26N 58°58' W 003°18'0 0.8
2019-Sep-16 20:00N 58°57' W 003°18'714.8
2019-Sep-16 19:30N 58°51' W 003°11'816.3
2019-Sep-16 19:00N 58°43' W 003°09'1019.5
2019-Sep-16 18:30N 58°40' W 003°27'4 8.2
2019-Sep-16 18:00N 58°37' W 003°32'0 0.0
2019-Sep-16 17:30N 58°37' W 003°32'4 7.1
2019-Sep-16 17:00N 58°40' W 003°32'917.7
2019-Sep-16 16:30N 58°49' W 003°31'816.1
2019-Sep-16 16:00N 58°56' W 003°24'4 6.8
2019-Sep-16 15:29N 58°58' W 003°18'0 0.0
2019-Sep-16 14:59N 58°58' W 003°18'0 0.0
2019-Sep-16 14:29N 58°58' W 003°18'0 0.0
2019-Sep-16 13:59N 58°58' W 003°18'0 0.0
2019-Sep-16 13:29N 58°58' W 003°18'0 0.0
2019-Sep-16 12:59N 58°58' W 003°18'0 0.0
2019-Sep-16 12:29N 58°58' W 003°18'0 0.0
2019-Sep-16 11:59N 58°58' W 003°18'0 0.0
2019-Sep-16 11:29N 58°58' W 003°18'0 0.0
2019-Sep-16 10:59N 58°58' W 003°18'0 0.0
2019-Sep-16 10:29N 58°58' W 003°18'0 0.0
2019-Sep-16 09:59N 58°58' W 003°18'2 4.4
2019-Sep-16 09:30N 58°57' W 003°21'816.1
2019-Sep-16 09:01N 58°50' W 003°29'816.6
2019-Sep-16 08:30N 58°41' W 003°30'5 9.7
2019-Sep-16 08:00N 58°37' W 003°32'0 0.0
2019-Sep-16 07:30N 58°37' W 003°32'0 0.3
2019-Sep-16 07:01N 58°37' W 003°32'917.5
2019-Sep-16 06:30N 58°45' W 003°30'917.7
2019-Sep-16 06:00N 58°54' W 003°26'611.6
2019-Sep-16 05:30N 58°58' W 003°18'0 0.0
2019-Sep-16 05:00N 58°58' W 003°18'0 0.0
2019-Sep-16 04:30N 58°58' W 003°18'0 0.0
2019-Sep-16 04:00N 58°58' W 003°18'0 0.0
2019-Sep-16 03:30N 58°58' W 003°18'0 0.0
2019-Sep-16 03:00N 58°58' W 003°18'0 0.0
2019-Sep-16 02:30N 58°58' W 003°18'0 0.0
2019-Sep-16 01:57N 58°58' W 003°18'0 0.0
2019-Sep-16 01:30N 58°58' W 003°18'0 0.0
2019-Sep-16 01:00N 58°58' W 003°18'0 0.0
2019-Sep-16 00:30N 58°58' W 003°18'0 0.0
2019-Sep-16 00:00N 58°58' W 003°18'0 0.0
2019-Sep-15 23:30N 58°58' W 003°18'0 0.0
2019-Sep-15 23:00N 58°58' W 003°18'0 0.0
2019-Sep-15 22:30N 58°58' W 003°18'0 0.0
2019-Sep-15 22:00N 58°58' W 003°18'0 0.0
2019-Sep-15 21:30N 58°58' W 003°18'0 0.0
2019-Sep-15 21:00N 58°58' W 003°18'0 0.0
2019-Sep-15 20:27N 58°58' W 003°18'0 0.0
2019-Sep-15 20:00N 58°58' W 003°18'0 0.0
2019-Sep-15 19:30N 58°58' W 003°18'0 0.0
2019-Sep-15 18:57N 58°58' W 003°18'0 0.0
2019-Sep-15 18:30N 58°58' W 003°18'0 0.0
2019-Sep-15 18:00N 58°58' W 003°18'0 0.0
2019-Sep-15 17:30N 58°58' W 003°18'0 0.0
2019-Sep-15 17:00N 58°58' W 003°18'0 0.0
2019-Sep-15 16:27N 58°58' W 003°18'0 0.0
2019-Sep-15 16:00N 58°58' W 003°18'0 0.0
2019-Sep-15 15:30N 58°58' W 003°18'0 0.0
2019-Sep-15 15:00N 58°58' W 003°18'0 0.0
2019-Sep-15 14:30N 58°58' W 003°18'0 0.0
2019-Sep-15 14:00N 58°58' W 003°18'0 0.0
2019-Sep-15 13:30N 58°58' W 003°18'0 0.0
2019-Sep-15 13:00N 58°58' W 003°18'0 0.0
2019-Sep-15 12:30N 58°58' W 003°18'0 0.0
2019-Sep-15 12:00N 58°58' W 003°18'0 0.0
2019-Sep-15 11:30N 58°58' W 003°18'0 0.0
2019-Sep-15 11:00N 58°58' W 003°18'0 0.0
2019-Sep-15 10:30N 58°58' W 003°18'0 0.0
2019-Sep-15 10:00N 58°58' W 003°18'0 0.0
2019-Sep-15 09:30N 58°58' W 003°18'0 0.0
2019-Sep-15 09:00N 58°58' W 003°18'0 0.0
2019-Sep-15 08:30N 58°58' W 003°18'0 0.0
2019-Sep-15 08:00N 58°58' W 003°18'0 0.0
2019-Sep-15 07:30N 58°58' W 003°18'0 0.0
2019-Sep-15 07:00N 58°58' W 003°18'0 0.0
2019-Sep-15 06:30N 58°58' W 003°18'0 0.0
2019-Sep-15 06:00N 58°58' W 003°18'0 0.0
2019-Sep-15 05:30N 58°58' W 003°18'0 0.0
2019-Sep-15 05:00N 58°58' W 003°18'0 0.0
2019-Sep-15 04:30N 58°58' W 003°18'0 0.0
2019-Sep-15 04:00N 58°58' W 003°18'0 0.0
2019-Sep-15 03:30N 58°58' W 003°18'0 0.0
2019-Sep-15 03:00N 58°58' W 003°18'0 0.0
2019-Sep-15 02:30N 58°58' W 003°18'0 0.0
2019-Sep-15 02:00N 58°58' W 003°18'0 0.0
2019-Sep-15 01:30N 58°58' W 003°18'0 0.0
2019-Sep-15 01:00N 58°58' W 003°18'0 0.0
2019-Sep-15 00:30N 58°58' W 003°18'0 0.0
2019-Sep-15 00:00N 58°58' W 003°18'0 0.0
2019-Sep-14 23:30N 58°58' W 003°18'0 0.0
2019-Sep-14 23:00N 58°58' W 003°18'0 0.0
2019-Sep-14 22:30N 58°58' W 003°18'0 0.0
2019-Sep-14 22:00N 58°58' W 003°18'0 0.0
2019-Sep-14 21:30N 58°58' W 003°18'0 0.0
2019-Sep-14 21:00N 58°58' W 003°18'0 0.0
2019-Sep-14 20:30N 58°58' W 003°18'0 0.0
2019-Sep-14 20:00N 58°58' W 003°18'0 0.0
2019-Sep-14 19:30N 58°58' W 003°18'2 3.3
2019-Sep-14 19:00N 58°57' W 003°15'816.0
2019-Sep-14 18:30N 58°52' W 003°03'816.7
2019-Sep-14 18:00N 58°43' W 003°05'919.0
2019-Sep-14 17:30N 58°42' W 003°23'714.1
2019-Sep-14 17:00N 58°37' W 003°32'0 0.1
2019-Sep-14 16:30N 58°37' W 003°32'612.8
2019-Sep-14 16:00N 58°42' W 003°38'815.7
2019-Sep-14 15:30N 58°49' W 003°29'815.4
2019-Sep-14 15:00N 58°56' W 003°25'4 7.7
2019-Sep-14 14:29N 58°58' W 003°18'0 0.0
2019-Sep-14 14:00N 58°58' W 003°18'3 6.4
2019-Sep-14 13:30N 58°57' W 003°23'917.6
2019-Sep-14 13:00N 58°48' W 003°29'918.4
2019-Sep-14 12:31N 58°39' W 003°31'3 4.6
2019-Sep-14 11:57N 58°37' W 003°32'1 1.2
2019-Sep-14 11:30N 58°37' W 003°32'917.7
2019-Sep-14 11:00N 58°46' W 003°30'917.8
2019-Sep-14 10:31N 58°55' W 003°27'611.5
2019-Sep-14 10:00N 58°58' W 003°18'0 0.1
2019-Sep-14 09:30N 58°58' W 003°18'1 2.5
2019-Sep-14 09:00N 58°57' W 003°19'816.4
2019-Sep-14 08:30N 58°50' W 003°29'918.1
2019-Sep-14 08:00N 58°41' W 003°31'5 9.4
2019-Sep-14 07:30N 58°37' W 003°32'1 1.4
2019-Sep-14 06:59N 58°37' W 003°32'817.5
2019-Sep-14 06:30N 58°46' W 003°29'918.3
2019-Sep-14 06:00N 58°54' W 003°26'510.9
2019-Sep-14 05:30N 58°58' W 003°18'0 0.0
2019-Sep-14 04:56N 58°58' W 003°18'0 0.0
2019-Sep-14 04:29N 58°58' W 003°18'0 0.0
2019-Sep-14 03:59N 58°58' W 003°18'0 0.0
2019-Sep-14 03:29N 58°58' W 003°18'0 0.0
2019-Sep-14 02:59N 58°58' W 003°18'0 0.0
2019-Sep-14 02:29N 58°58' W 003°18'0 0.0
2019-Sep-14 01:59N 58°58' W 003°18'0 0.0
2019-Sep-14 01:29N 58°58' W 003°18'0 0.0
2019-Sep-14 00:59N 58°58' W 003°18'0 0.0
2019-Sep-14 00:29N 58°58' W 003°18'0 0.0
2019-Sep-13 23:59N 58°58' W 003°18'0 0.0
2019-Sep-13 23:29N 58°58' W 003°18'0 0.0
2019-Sep-13 22:59N 58°58' W 003°18'0 0.0
2019-Sep-13 22:29N 58°58' W 003°18'0 0.0
2019-Sep-13 21:59N 58°58' W 003°18'0 0.0
2019-Sep-13 21:29N 58°58' W 003°18'0 0.0
2019-Sep-13 20:59N 58°58' W 003°18'0 0.0
2019-Sep-13 20:30N 58°58' W 003°18'0 0.0
2019-Sep-13 20:00N 58°58' W 003°18'1 1.5
2019-Sep-13 19:30N 58°57' W 003°17'714.6
2019-Sep-13 19:00N 58°52' W 003°28'917.3
2019-Sep-13 18:30N 58°44' W 003°29'714.2
2019-Sep-13 18:00N 58°37' W 003°32'0 0.0
2019-Sep-13 17:30N 58°37' W 003°32'3 5.7
2019-Sep-13 17:01N 58°39' W 003°31'917.8
2019-Sep-13 16:30N 58°48' W 003°30'816.7
2019-Sep-13 16:00N 58°57' W 003°26'5 7.8
2019-Sep-13 15:25N 58°58' W 003°18'0 0.0
2019-Sep-13 14:58N 58°58' W 003°18'0 0.0
2019-Sep-13 14:28N 58°58' W 003°18'0 0.0
2019-Sep-13 13:58N 58°58' W 003°18'0 0.0
2019-Sep-13 13:28N 58°58' W 003°18'0 0.0
2019-Sep-13 12:58N 58°58' W 003°18'0 0.0
2019-Sep-13 12:28N 58°58' W 003°18'0 0.0
2019-Sep-13 11:58N 58°58' W 003°18'0 0.0
2019-Sep-13 11:28N 58°58' W 003°18'0 0.0
2019-Sep-13 10:58N 58°58' W 003°18'0 0.0
2019-Sep-13 10:28N 58°58' W 003°18'0 0.0
2019-Sep-13 09:58N 58°58' W 003°18'1 1.2
2019-Sep-13 09:30N 58°57' W 003°17'816.4
2019-Sep-13 09:00N 58°50' W 003°11'714.4
2019-Sep-13 08:30N 58°44' W 003°18'1019.8
2019-Sep-13 08:00N 58°37' W 003°32'0 0.7
2019-Sep-13 07:30N 58°37' W 003°32'2 3.9
2019-Sep-13 07:00N 58°39' W 003°32'917.5
2019-Sep-13 06:30N 58°47' W 003°31'917.5
2019-Sep-13 06:00N 58°56' W 003°28'611.3
2019-Sep-13 05:30N 58°58' W 003°18'0 0.3
2019-Sep-13 04:59N 58°58' W 003°18'0 0.0
2019-Sep-13 04:29N 58°58' W 003°18'0 0.0
2019-Sep-13 03:59N 58°58' W 003°18'0 0.0
2019-Sep-13 03:29N 58°58' W 003°18'0 0.0
2019-Sep-13 02:59N 58°58' W 003°18'0 0.0
2019-Sep-13 01:59N 58°58' W 003°18'0 0.0
2019-Sep-13 01:29N 58°58' W 003°18'0 0.0
2019-Sep-13 00:59N 58°58' W 003°18'0 0.0
2019-Sep-13 00:29N 58°58' W 003°18'0 0.0
2019-Sep-12 23:59N 58°58' W 003°18'0 0.0
2019-Sep-12 23:29N 58°58' W 003°18'0 0.0
2019-Sep-12 22:59N 58°58' W 003°18'0 0.0
2019-Sep-12 22:29N 58°58' W 003°18'0 0.0
2019-Sep-12 21:59N 58°58' W 003°18'0 0.0
2019-Sep-12 21:29N 58°58' W 003°18'0 0.0
2019-Sep-12 20:59N 58°58' W 003°18'0 0.0
2019-Sep-12 20:29N 58°58' W 003°18'0 0.0
2019-Sep-12 19:59N 58°58' W 003°18'0 0.9
2019-Sep-12 19:30N 58°57' W 003°18'714.5
2019-Sep-12 19:00N 58°52' W 003°28'917.3
2019-Sep-12 18:30N 58°44' W 003°30'714.3
2019-Sep-12 18:00N 58°37' W 003°32'0 0.0
2019-Sep-12 17:30N 58°37' W 003°32'4 7.4
2019-Sep-12 17:00N 58°40' W 003°32'917.5
2019-Sep-12 16:30N 58°49' W 003°30'815.9
2019-Sep-12 16:00N 58°56' W 003°25'4 6.6
2019-Sep-12 15:25N 58°58' W 003°18'0 0.0
2019-Sep-12 14:55N 58°58' W 003°18'0 0.0
2019-Sep-12 14:19N 58°58' W 003°18'0 0.0
2019-Sep-12 13:49N 58°58' W 003°18'0 0.0
2019-Sep-12 13:25N 58°58' W 003°18'0 0.0
2019-Sep-12 12:58N 58°58' W 003°18'0 0.0
2019-Sep-12 12:28N 58°58' W 003°18'0 0.0
2019-Sep-12 11:55N 58°58' W 003°18'0 0.0
2019-Sep-12 11:25N 58°58' W 003°18'0 0.0
2019-Sep-12 10:58N 58°58' W 003°18'0 0.0
2019-Sep-12 10:28N 58°58' W 003°18'0 0.0
2019-Sep-12 09:58N 58°58' W 003°18'0 0.0
2019-Sep-12 09:25N 58°58' W 003°18'1 3.5
2019-Sep-12 09:00N 58°57' W 003°20'815.8
2019-Sep-12 08:30N 58°50' W 003°29'918.5
2019-Sep-12 08:00N 58°41' W 003°31'5 9.2
2019-Sep-12 07:30N 58°37' W 003°32'1 2.4
2019-Sep-12 07:00N 58°38' W 003°32'918.0
2019-Sep-12 06:30N 58°47' W 003°31'918.2
2019-Sep-12 06:00N 58°56' W 003°28'611.2
2019-Sep-12 05:30N 58°58' W 003°18'0 0.3
2019-Sep-12 05:00N 58°58' W 003°18'0 0.0
2019-Sep-12 04:30N 58°58' W 003°18'0 0.0
2019-Sep-12 04:00N 58°58' W 003°18'0 0.0
2019-Sep-12 03:30N 58°58' W 003°18'0 0.0
2019-Sep-12 03:00N 58°58' W 003°18'0 0.0
2019-Sep-12 02:30N 58°58' W 003°18'0 0.0
2019-Sep-12 02:00N 58°58' W 003°18'0 0.0
2019-Sep-12 01:24N 58°58' W 003°18'0 0.0
2019-Sep-12 01:00N 58°58' W 003°18'0 0.0
2019-Sep-12 00:30N 58°58' W 003°18'  
Track history (hours):
 
Tides and Currents Weather Stations Pressure Air Temp Water Temp Dewpoint Dewpoint Depression Visibility Wind Speed Wind Dir Waves Ship Positions

Hamnavoe

Operator: NorthLink Orkey & Shetland Ferries Ltd

Last reported at 2019-Sep-22 00:27 UTC. Time now 2019-Sep-22 00:32 UTC.
Position N 58°58' W 003°18'.

Length 112 m; draft 4.3 m.

Type: Ship. MMSI: 235449000.

Date/timePositionNaut miles runAvg speedWind from/ knotsBaromVisibWave heightAir tempDewpointWater temp
2019-Sep-22 00:27N 58°58' W 003°18'0 0.0
2019-Sep-22 00:00N 58°58' W 003°18'0 0.0
2019-Sep-21 23:27N 58°58' W 003°18'0 0.0
2019-Sep-21 23:00N 58°58' W 003°18'0 0.0
2019-Sep-21 22:30N 58°58' W 003°18'0 0.0
2019-Sep-21 21:57N 58°58' W 003°18'0 0.0
2019-Sep-21 21:27N 58°58' W 003°18'0 0.0
2019-Sep-21 20:57N 58°58' W 003°18'0 0.0
2019-Sep-21 20:27N 58°58' W 003°18'0 0.0
2019-Sep-21 19:57N 58°58' W 003°18'0 0.0
2019-Sep-21 19:27N 58°58' W 003°18'2 5.1
2019-Sep-21 19:00N 58°57' W 003°22'917.8
2019-Sep-21 18:30N 58°49' W 003°29'918.8
2019-Sep-21 18:01N 58°39' W 003°31'3 5.6
2019-Sep-21 17:30N 58°37' W 003°32'1 1.5
2019-Sep-21 17:00N 58°37' W 003°32'917.2
2019-Sep-21 16:30N 58°46' W 003°30'917.7
2019-Sep-21 16:00N 58°54' W 003°26'611.1
2019-Sep-21 15:30N 58°58' W 003°18'0 0.0
2019-Sep-21 15:00N 58°58' W 003°18'0 0.0
2019-Sep-21 14:30N 58°58' W 003°18'0 0.0
2019-Sep-21 14:00N 58°58' W 003°18'2 3.2
2019-Sep-21 13:30N 58°57' W 003°20'816.1
2019-Sep-21 13:00N 58°50' W 003°28'918.6
2019-Sep-21 12:30N 58°41' W 003°30'4 8.5
2019-Sep-21 12:00N 58°37' W 003°32'0 0.2
2019-Sep-21 11:30N 58°37' W 003°32'917.2
2019-Sep-21 11:00N 58°45' W 003°30'918.3
2019-Sep-21 10:30N 58°54' W 003°27'611.8
2019-Sep-21 10:00N 58°58' W 003°18'0 0.2
2019-Sep-21 09:31N 58°58' W 003°18'1 1.6
2019-Sep-21 09:01N 58°57' W 003°17'816.0
2019-Sep-21 08:30N 58°51' W 003°28'1019.0
2019-Sep-21 08:00N 58°42' W 003°31'510.7
2019-Sep-21 07:30N 58°37' W 003°32'0 0.0
2019-Sep-21 07:01N 58°37' W 003°32'814.9
2019-Sep-21 06:30N 58°44' W 003°30'917.4
2019-Sep-21 06:01N 58°53' W 003°28'714.2
2019-Sep-21 05:31N 58°58' W 003°18'0 0.5
2019-Sep-21 05:00N 58°58' W 003°18'0 0.0
2019-Sep-21 04:30N 58°58' W 003°18'0 0.0
2019-Sep-21 04:00N 58°58' W 003°18'0 0.0
2019-Sep-21 03:30N 58°58' W 003°18'0 0.0
2019-Sep-21 03:00N 58°58' W 003°18'0 0.0
2019-Sep-21 02:30N 58°58' W 003°18'0 0.0
2019-Sep-21 02:00N 58°58' W 003°18'0 0.0
2019-Sep-21 01:30N 58°58' W 003°18'0 0.0
2019-Sep-21 00:57N 58°58' W 003°18'0 0.0
2019-Sep-21 00:30N 58°58' W 003°18'0 0.0
2019-Sep-20 23:57N 58°58' W 003°18'0 0.0
2019-Sep-20 23:30N 58°58' W 003°18'0 0.0
2019-Sep-20 23:00N 58°58' W 003°18'0 0.0
2019-Sep-20 22:30N 58°58' W 003°18'0 0.0
2019-Sep-20 22:00N 58°58' W 003°18'0 0.0
2019-Sep-20 21:30N 58°58' W 003°18'0 0.0
2019-Sep-20 21:00N 58°58' W 003°18'0 0.0
2019-Sep-20 20:30N 58°58' W 003°18'0 0.0
2019-Sep-20 19:57N 58°58' W 003°18'0 0.0
2019-Sep-20 19:30N 58°58' W 003°18'5 9.7
2019-Sep-20 19:00N 58°55' W 003°26'918.7
2019-Sep-20 18:30N 58°46' W 003°30'918.2
2019-Sep-20 18:00N 58°37' W 003°32'1 1.3
2019-Sep-20 17:30N 58°37' W 003°32'0 0.7
2019-Sep-20 17:00N 58°37' W 003°32'918.4
2019-Sep-20 16:30N 58°46' W 003°30'917.9
2019-Sep-20 16:00N 58°55' W 003°26'510.4
2019-Sep-20 15:30N 58°58' W 003°18'0 0.0
2019-Sep-20 14:59N 58°58' W 003°18'0 0.0
2019-Sep-20 14:30N 58°58' W 003°18'0 0.0
2019-Sep-20 14:00N 58°58' W 003°18'0 0.0
2019-Sep-20 13:30N 58°58' W 003°18'0 0.0
2019-Sep-20 13:00N 58°58' W 003°18'0 0.0
2019-Sep-20 12:27N 58°58' W 003°18'0 0.0
2019-Sep-20 12:00N 58°58' W 003°18'0 0.0
2019-Sep-20 11:30N 58°58' W 003°18'0 0.0
2019-Sep-20 11:00N 58°58' W 003°18'0 0.0
2019-Sep-20 10:30N 58°58' W 003°18'0 0.0
2019-Sep-20 10:00N 58°58' W 003°18'0 0.0
2019-Sep-20 09:30N 58°58' W 003°18'1 2.3
2019-Sep-20 09:00N 58°57' W 003°19'816.2
2019-Sep-20 08:30N 58°50' W 003°28'918.5
2019-Sep-20 08:00N 58°41' W 003°31'5 9.0
2019-Sep-20 07:30N 58°37' W 003°32'0 0.2
2019-Sep-20 07:00N 58°37' W 003°32'816.2
2019-Sep-20 06:30N 58°45' W 003°30'917.6
2019-Sep-20 06:00N 58°53' W 003°27'713.2
2019-Sep-20 05:30N 58°58' W 003°18'0 0.4
2019-Sep-20 04:59N 58°58' W 003°18'0 0.0
2019-Sep-20 04:26N 58°58' W 003°18'0 0.0
2019-Sep-20 03:56N 58°58' W 003°18'0 0.0
2019-Sep-20 03:20N 58°58' W 003°18'0 0.0
2019-Sep-20 02:56N 58°58' W 003°18'0 0.0
2019-Sep-20 02:26N 58°58' W 003°18'0 0.0
2019-Sep-20 01:56N 58°58' W 003°18'0 0.0
2019-Sep-20 01:26N 58°58' W 003°18'0 0.0
2019-Sep-20 00:56N 58°58' W 003°18'0 0.0
2019-Sep-20 00:26N 58°58' W 003°18'0 0.0
2019-Sep-19 23:56N 58°58' W 003°18'0 0.0
2019-Sep-19 23:26N 58°58' W 003°18'0 0.0
2019-Sep-19 22:56N 58°58' W 003°18'0 0.0
2019-Sep-19 22:26N 58°58' W 003°18'0 0.0
2019-Sep-19 21:56N 58°58' W 003°18'0 0.0
2019-Sep-19 21:26N 58°58' W 003°18'0 0.0
2019-Sep-19 20:56N 58°58' W 003°18'0 0.0
2019-Sep-19 20:26N 58°58' W 003°18'0 0.0
2019-Sep-19 19:56N 58°58' W 003°18'0 0.7
2019-Sep-19 19:30N 58°58' W 003°18'713.6
2019-Sep-19 19:00N 58°53' W 003°27'918.4
2019-Sep-19 18:31N 58°44' W 003°30'714.3
2019-Sep-19 18:00N 58°37' W 003°32'0 0.0
2019-Sep-19 17:30N 58°37' W 003°32'3 6.4
2019-Sep-19 17:00N 58°40' W 003°32'918.3
2019-Sep-19 16:30N 58°49' W 003°29'816.4
2019-Sep-19 16:00N 58°56' W 003°23'3 5.9
2019-Sep-19 15:29N 58°58' W 003°18'0 0.0
2019-Sep-19 15:00N 58°58' W 003°18'0 0.0
2019-Sep-19 14:27N 58°58' W 003°18'0 0.0
2019-Sep-19 13:57N 58°58' W 003°18'0 0.0
2019-Sep-19 13:30N 58°58' W 003°18'0 0.0
2019-Sep-19 13:00N 58°58' W 003°18'0 0.0
2019-Sep-19 12:30N 58°58' W 003°18'0 0.0
2019-Sep-19 11:59N 58°58' W 003°18'0 0.0
2019-Sep-19 11:29N 58°58' W 003°18'0 0.0
2019-Sep-19 10:59N 58°58' W 003°18'0 0.0
2019-Sep-19 10:29N 58°58' W 003°18'0 0.0
2019-Sep-19 09:59N 58°58' W 003°18'0 0.0
2019-Sep-19 09:29N 58°58' W 003°18'0 0.8
2019-Sep-19 09:00N 58°57' W 003°18'815.2
2019-Sep-19 08:31N 58°52' W 003°28'918.4
2019-Sep-19 08:00N 58°43' W 003°30'612.7
2019-Sep-19 07:31N 58°37' W 003°32'0 0.0
2019-Sep-19 07:00N 58°37' W 003°32'713.2
2019-Sep-19 06:30N 58°43' W 003°30'918.1
2019-Sep-19 06:00N 58°52' W 003°28'714.7
2019-Sep-19 05:30N 58°57' W 003°18'0 0.8
2019-Sep-19 05:00N 58°58' W 003°18'0 0.0
2019-Sep-19 04:30N 58°58' W 003°18'0 0.0
2019-Sep-19 04:00N 58°58' W 003°18'0 0.0
2019-Sep-19 03:30N 58°58' W 003°18'0 0.0
2019-Sep-19 03:00N 58°58' W 003°18'0 0.0
2019-Sep-19 02:27N 58°58' W 003°18'0 0.0
2019-Sep-19 01:57N 58°58' W 003°18'0 0.0
2019-Sep-19 01:30N 58°58' W 003°18'0 0.0
2019-Sep-19 00:57N 58°58' W 003°18'0 0.0
2019-Sep-19 00:30N 58°58' W 003°18'0 0.0
2019-Sep-18 23:57N 58°58' W 003°18'0 0.0
2019-Sep-18 23:30N 58°58' W 003°18'0 0.0
2019-Sep-18 23:00N 58°58' W 003°18'0 0.0
2019-Sep-18 22:30N 58°58' W 003°18'0 0.0
2019-Sep-18 22:00N 58°58' W 003°18'0 0.0
2019-Sep-18 21:30N 58°58' W 003°18'0 0.0
2019-Sep-18 21:00N 58°58' W 003°18'0 0.0
2019-Sep-18 20:30N 58°58' W 003°18'0 0.0
2019-Sep-18 19:57N 58°58' W 003°18'0 0.0
2019-Sep-18 19:30N 58°58' W 003°18'5 9.3
2019-Sep-18 19:00N 58°55' W 003°25'918.2
2019-Sep-18 18:30N 58°46' W 003°29'918.0
2019-Sep-18 18:00N 58°38' W 003°31'1 2.2
2019-Sep-18 17:30N 58°37' W 003°32'2 3.7
2019-Sep-18 17:00N 58°38' W 003°31'917.4
2019-Sep-18 16:30N 58°47' W 003°31'917.7
2019-Sep-18 16:00N 58°56' W 003°26'5 9.2
2019-Sep-18 15:30N 58°58' W 003°18'0 0.0
2019-Sep-18 15:00N 58°58' W 003°18'0 0.0
2019-Sep-18 14:30N 58°58' W 003°18'0 0.0
2019-Sep-18 14:00N 58°58' W 003°18'0 0.0
2019-Sep-18 13:30N 58°58' W 003°18'0 0.0
2019-Sep-18 12:57N 58°58' W 003°18'0 0.0
2019-Sep-18 12:30N 58°58' W 003°18'0 0.0
2019-Sep-18 12:00N 58°58' W 003°18'0 0.0
2019-Sep-18 11:30N 58°58' W 003°18'0 0.0
2019-Sep-18 11:00N 58°58' W 003°18'0 0.0
2019-Sep-18 10:30N 58°58' W 003°18'0 0.0
2019-Sep-18 10:00N 58°58' W 003°18'0 0.0
2019-Sep-18 09:30N 58°58' W 003°18'1 1.2
2019-Sep-18 09:00N 58°57' W 003°18'714.6
2019-Sep-18 08:30N 58°52' W 003°27'917.6
2019-Sep-18 08:00N 58°43' W 003°30'713.2
2019-Sep-18 07:30N 58°37' W 003°32'0 0.0
2019-Sep-18 07:00N 58°37' W 003°32'611.8
2019-Sep-18 06:30N 58°42' W 003°31'917.9
2019-Sep-18 06:00N 58°51' W 003°28'816.1
2019-Sep-18 05:30N 58°57' W 003°17'1 1.2
2019-Sep-18 04:58N 58°58' W 003°18'0 0.0
2019-Sep-18 04:25N 58°58' W 003°18'0 0.0
2019-Sep-18 03:55N 58°58' W 003°18'0 0.0
2019-Sep-18 03:25N 58°58' W 003°18'0 0.0
2019-Sep-18 02:55N 58°58' W 003°18'0 0.0
2019-Sep-18 02:25N 58°58' W 003°18'0 0.0
2019-Sep-18 01:55N 58°58' W 003°18'0 0.0
2019-Sep-18 01:25N 58°58' W 003°18'0 0.0
2019-Sep-18 00:55N 58°58' W 003°18'0 0.0
2019-Sep-18 00:28N 58°58' W 003°18'0 0.0
2019-Sep-17 23:58N 58°58' W 003°18'0 0.0
2019-Sep-17 23:25N 58°58' W 003°18'0 0.0
2019-Sep-17 22:58N 58°58' W 003°18'0 0.0
2019-Sep-17 22:25N 58°58' W 003°18'0 0.0
2019-Sep-17 21:58N 58°58' W 003°18'0 0.0
2019-Sep-17 21:28N 58°58' W 003°18'0 0.0
2019-Sep-17 20:58N 58°58' W 003°18'0 0.0
2019-Sep-17 20:28N 58°58' W 003°18'0 0.0
2019-Sep-17 19:58N 58°58' W 003°18'0 0.0
2019-Sep-17 19:30N 58°58' W 003°18'612.4
2019-Sep-17 19:00N 58°54' W 003°27'917.6
2019-Sep-17 18:30N 58°45' W 003°30'816.8
2019-Sep-17 18:00N 58°37' W 003°32'0 0.4
2019-Sep-17 17:30N 58°37' W 003°32'2 4.9
2019-Sep-17 17:00N 58°39' W 003°31'918.0
2019-Sep-17 16:30N 58°48' W 003°29'917.5
2019-Sep-17 16:00N 58°56' W 003°24'4 7.4
2019-Sep-17 15:30N 58°58' W 003°18'0 0.0
2019-Sep-17 15:00N 58°58' W 003°18'0 0.0
2019-Sep-17 14:30N 58°58' W 003°18'0 0.0
2019-Sep-17 14:00N 58°58' W 003°18'0 0.0
2019-Sep-17 13:30N 58°58' W 003°18'0 0.0
2019-Sep-17 13:00N 58°58' W 003°18'0 0.0
2019-Sep-17 12:30N 58°58' W 003°18'0 0.0
2019-Sep-17 12:00N 58°58' W 003°18'0 0.0
2019-Sep-17 11:30N 58°58' W 003°18'0 0.0
2019-Sep-17 11:00N 58°58' W 003°18'0 0.0
2019-Sep-17 10:30N 58°58' W 003°18'0 0.0
2019-Sep-17 10:00N 58°58' W 003°18'3 6.6
2019-Sep-17 09:30N 58°55' W 003°14'816.6
2019-Sep-17 09:00N 58°48' W 003°07'918.8
2019-Sep-17 08:30N 58°43' W 003°23'815.8
2019-Sep-17 08:00N 58°37' W 003°32'0 0.0
2019-Sep-17 07:30N 58°37' W 003°32'1 1.3
2019-Sep-17 07:00N 58°37' W 003°32'917.7
2019-Sep-17 06:30N 58°46' W 003°28'917.3
2019-Sep-17 06:00N 58°55' W 003°28'612.2
2019-Sep-17 05:30N 58°58' W 003°18'0 0.4
2019-Sep-17 04:53N 58°58' W 003°18'0 0.0
2019-Sep-17 04:29N 58°58' W 003°18'0 0.0
2019-Sep-17 03:59N 58°58' W 003°18'0 0.0
2019-Sep-17 03:26N 58°58' W 003°18'0 0.0
2019-Sep-17 02:59N 58°58' W 003°18'0 0.0
2019-Sep-17 02:29N 58°58' W 003°18'0 0.0
2019-Sep-17 01:59N 58°58' W 003°18'0 0.0
2019-Sep-17 01:29N 58°58' W 003°18'0 0.0
2019-Sep-17 00:56N 58°58' W 003°18'0 0.0
2019-Sep-17 00:29N 58°58' W 003°18'0 0.0
2019-Sep-16 23:59N 58°58' W 003°18'0 0.0
2019-Sep-16 23:29N 58°58' W 003°18'0 0.0
2019-Sep-16 22:59N 58°58' W 003°18'0 0.0
2019-Sep-16 22:29N 58°58' W 003°18'0 0.0
2019-Sep-16 21:59N 58°58' W 003°18'0 0.0
2019-Sep-16 21:29N 58°58' W 003°18'0 0.0
2019-Sep-16 20:59N 58°58' W 003°18'0 0.0
2019-Sep-16 20:26N 58°58' W 003°18'0 0.8
2019-Sep-16 20:00N 58°57' W 003°18'714.8
2019-Sep-16 19:30N 58°51' W 003°11'816.3
2019-Sep-16 19:00N 58°43' W 003°09'1019.5
2019-Sep-16 18:30N 58°40' W 003°27'4 8.2
2019-Sep-16 18:00N 58°37' W 003°32'0 0.0
2019-Sep-16 17:30N 58°37' W 003°32'4 7.1
2019-Sep-16 17:00N 58°40' W 003°32'917.7
2019-Sep-16 16:30N 58°49' W 003°31'816.1
2019-Sep-16 16:00N 58°56' W 003°24'4 6.8
2019-Sep-16 15:29N 58°58' W 003°18'0 0.0
2019-Sep-16 14:59N 58°58' W 003°18'0 0.0
2019-Sep-16 14:29N 58°58' W 003°18'0 0.0
2019-Sep-16 13:59N 58°58' W 003°18'0 0.0
2019-Sep-16 13:29N 58°58' W 003°18'0 0.0
2019-Sep-16 12:59N 58°58' W 003°18'0 0.0
2019-Sep-16 12:29N 58°58' W 003°18'0 0.0
2019-Sep-16 11:59N 58°58' W 003°18'0 0.0
2019-Sep-16 11:29N 58°58' W 003°18'0 0.0
2019-Sep-16 10:59N 58°58' W 003°18'0 0.0
2019-Sep-16 10:29N 58°58' W 003°18'0 0.0
2019-Sep-16 09:59N 58°58' W 003°18'2 4.4
2019-Sep-16 09:30N 58°57' W 003°21'816.1
2019-Sep-16 09:01N 58°50' W 003°29'816.6
2019-Sep-16 08:30N 58°41' W 003°30'5 9.7
2019-Sep-16 08:00N 58°37' W 003°32'0 0.0
2019-Sep-16 07:30N 58°37' W 003°32'0 0.3
2019-Sep-16 07:01N 58°37' W 003°32'917.5
2019-Sep-16 06:30N 58°45' W 003°30'917.7
2019-Sep-16 06:00N 58°54' W 003°26'611.6
2019-Sep-16 05:30N 58°58' W 003°18'0 0.0
2019-Sep-16 05:00N 58°58' W 003°18'0 0.0
2019-Sep-16 04:30N 58°58' W 003°18'0 0.0
2019-Sep-16 04:00N 58°58' W 003°18'0 0.0
2019-Sep-16 03:30N 58°58' W 003°18'0 0.0
2019-Sep-16 03:00N 58°58' W 003°18'0 0.0
2019-Sep-16 02:30N 58°58' W 003°18'0 0.0
2019-Sep-16 01:57N 58°58' W 003°18'0 0.0
2019-Sep-16 01:30N 58°58' W 003°18'0 0.0
2019-Sep-16 01:00N 58°58' W 003°18'0 0.0
2019-Sep-16 00:30N 58°58' W 003°18'0 0.0
2019-Sep-16 00:00N 58°58' W 003°18'0 0.0
2019-Sep-15 23:30N 58°58' W 003°18'0 0.0
2019-Sep-15 23:00N 58°58' W 003°18'0 0.0
2019-Sep-15 22:30N 58°58' W 003°18'0 0.0
2019-Sep-15 22:00N 58°58' W 003°18'0 0.0
2019-Sep-15 21:30N 58°58' W 003°18'0 0.0
2019-Sep-15 21:00N 58°58' W 003°18'0 0.0
2019-Sep-15 20:27N 58°58' W 003°18'0 0.0
2019-Sep-15 20:00N 58°58' W 003°18'0 0.0
2019-Sep-15 19:30N 58°58' W 003°18'0 0.0
2019-Sep-15 18:57N 58°58' W 003°18'0 0.0
2019-Sep-15 18:30N 58°58' W 003°18'0 0.0
2019-Sep-15 18:00N 58°58' W 003°18'0 0.0
2019-Sep-15 17:30N 58°58' W 003°18'0 0.0
2019-Sep-15 17:00N 58°58' W 003°18'0 0.0
2019-Sep-15 16:27N 58°58' W 003°18'0 0.0
2019-Sep-15 16:00N 58°58' W 003°18'0 0.0
2019-Sep-15 15:30N 58°58' W 003°18'0 0.0
2019-Sep-15 15:00N 58°58' W 003°18'0 0.0
2019-Sep-15 14:30N 58°58' W 003°18'0 0.0
2019-Sep-15 14:00N 58°58' W 003°18'0 0.0
2019-Sep-15 13:30N 58°58' W 003°18'0 0.0
2019-Sep-15 13:00N 58°58' W 003°18'0 0.0
2019-Sep-15 12:30N 58°58' W 003°18'0 0.0
2019-Sep-15 12:00N 58°58' W 003°18'0 0.0
2019-Sep-15 11:30N 58°58' W 003°18'0 0.0
2019-Sep-15 11:00N 58°58' W 003°18'0 0.0
2019-Sep-15 10:30N 58°58' W 003°18'0 0.0
2019-Sep-15 10:00N 58°58' W 003°18'0 0.0
2019-Sep-15 09:30N 58°58' W 003°18'0 0.0
2019-Sep-15 09:00N 58°58' W 003°18'0 0.0
2019-Sep-15 08:30N 58°58' W 003°18'0 0.0
2019-Sep-15 08:00N 58°58' W 003°18'0 0.0
2019-Sep-15 07:30N 58°58' W 003°18'0 0.0
2019-Sep-15 07:00N 58°58' W 003°18'0 0.0
2019-Sep-15 06:30N 58°58' W 003°18'0 0.0
2019-Sep-15 06:00N 58°58' W 003°18'0 0.0
2019-Sep-15 05:30N 58°58' W 003°18'0 0.0
2019-Sep-15 05:00N 58°58' W 003°18'0 0.0
2019-Sep-15 04:30N 58°58' W 003°18'0 0.0
2019-Sep-15 04:00N 58°58' W 003°18'0 0.0
2019-Sep-15 03:30N 58°58' W 003°18'0 0.0
2019-Sep-15 03:00N 58°58' W 003°18'0 0.0
2019-Sep-15 02:30N 58°58' W 003°18'0 0.0
2019-Sep-15 02:00N 58°58' W 003°18'0 0.0
2019-Sep-15 01:30N 58°58' W 003°18'0 0.0
2019-Sep-15 01:00N 58°58' W 003°18'0 0.0
2019-Sep-15 00:30N 58°58' W 003°18'0 0.0
2019-Sep-15 00:00N 58°58' W 003°18'0 0.0
2019-Sep-14 23:30N 58°58' W 003°18'0 0.0
2019-Sep-14 23:00N 58°58' W 003°18'0 0.0
2019-Sep-14 22:30N 58°58' W 003°18'0 0.0
2019-Sep-14 22:00N 58°58' W 003°18'0 0.0
2019-Sep-14 21:30N 58°58' W 003°18'0 0.0
2019-Sep-14 21:00N 58°58' W 003°18'0 0.0
2019-Sep-14 20:30N 58°58' W 003°18'0 0.0
2019-Sep-14 20:00N 58°58' W 003°18'0 0.0
2019-Sep-14 19:30N 58°58' W 003°18'2 3.3
2019-Sep-14 19:00N 58°57' W 003°15'816.0
2019-Sep-14 18:30N 58°52' W 003°03'816.7
2019-Sep-14 18:00N 58°43' W 003°05'919.0
2019-Sep-14 17:30N 58°42' W 003°23'714.1
2019-Sep-14 17:00N 58°37' W 003°32'0 0.1
2019-Sep-14 16:30N 58°37' W 003°32'612.8
2019-Sep-14 16:00N 58°42' W 003°38'815.7
2019-Sep-14 15:30N 58°49' W 003°29'815.4
2019-Sep-14 15:00N 58°56' W 003°25'4 7.7
2019-Sep-14 14:29N 58°58' W 003°18'0 0.0
2019-Sep-14 14:00N 58°58' W 003°18'3 6.4
2019-Sep-14 13:30N 58°57' W 003°23'917.6
2019-Sep-14 13:00N 58°48' W 003°29'918.4
2019-Sep-14 12:31N 58°39' W 003°31'3 4.6
2019-Sep-14 11:57N 58°37' W 003°32'1 1.2
2019-Sep-14 11:30N 58°37' W 003°32'917.7
2019-Sep-14 11:00N 58°46' W 003°30'917.8
2019-Sep-14 10:31N 58°55' W 003°27'611.5
2019-Sep-14 10:00N 58°58' W 003°18'0 0.1
2019-Sep-14 09:30N 58°58' W 003°18'1 2.5
2019-Sep-14 09:00N 58°57' W 003°19'816.4
2019-Sep-14 08:30N 58°50' W 003°29'918.1
2019-Sep-14 08:00N 58°41' W 003°31'5 9.4
2019-Sep-14 07:30N 58°37' W 003°32'1 1.4
2019-Sep-14 06:59N 58°37' W 003°32'817.5
2019-Sep-14 06:30N 58°46' W 003°29'918.3
2019-Sep-14 06:00N 58°54' W 003°26'510.9
2019-Sep-14 05:30N 58°58' W 003°18'0 0.0
2019-Sep-14 04:56N 58°58' W 003°18'0 0.0
2019-Sep-14 04:29N 58°58' W 003°18'0 0.0
2019-Sep-14 03:59N 58°58' W 003°18'0 0.0
2019-Sep-14 03:29N 58°58' W 003°18'0 0.0
2019-Sep-14 02:59N 58°58' W 003°18'0 0.0
2019-Sep-14 02:29N 58°58' W 003°18'0 0.0
2019-Sep-14 01:59N 58°58' W 003°18'0 0.0
2019-Sep-14 01:29N 58°58' W 003°18'0 0.0
2019-Sep-14 00:59N 58°58' W 003°18'0 0.0
2019-Sep-14 00:29N 58°58' W 003°18'0 0.0
2019-Sep-13 23:59N 58°58' W 003°18'0 0.0
2019-Sep-13 23:29N 58°58' W 003°18'0 0.0
2019-Sep-13 22:59N 58°58' W 003°18'0 0.0
2019-Sep-13 22:29N 58°58' W 003°18'0 0.0
2019-Sep-13 21:59N 58°58' W 003°18'0 0.0
2019-Sep-13 21:29N 58°58' W 003°18'0 0.0
2019-Sep-13 20:59N 58°58' W 003°18'0 0.0
2019-Sep-13 20:30N 58°58' W 003°18'0 0.0
2019-Sep-13 20:00N 58°58' W 003°18'1 1.5
2019-Sep-13 19:30N 58°57' W 003°17'714.6
2019-Sep-13 19:00N 58°52' W 003°28'917.3
2019-Sep-13 18:30N 58°44' W 003°29'714.2
2019-Sep-13 18:00N 58°37' W 003°32'0 0.0
2019-Sep-13 17:30N 58°37' W 003°32'3 5.7
2019-Sep-13 17:01N 58°39' W 003°31'917.8
2019-Sep-13 16:30N 58°48' W 003°30'816.7
2019-Sep-13 16:00N 58°57' W 003°26'5 7.8
2019-Sep-13 15:25N 58°58' W 003°18'0 0.0
2019-Sep-13 14:58N 58°58' W 003°18'0 0.0
2019-Sep-13 14:28N 58°58' W 003°18'0 0.0
2019-Sep-13 13:58N 58°58' W 003°18'0 0.0
2019-Sep-13 13:28N 58°58' W 003°18'0 0.0
2019-Sep-13 12:58N 58°58' W 003°18'0 0.0
2019-Sep-13 12:28N 58°58' W 003°18'0 0.0
2019-Sep-13 11:58N 58°58' W 003°18'0 0.0
2019-Sep-13 11:28N 58°58' W 003°18'0 0.0
2019-Sep-13 10:58N 58°58' W 003°18'0 0.0
2019-Sep-13 10:28N 58°58' W 003°18'0 0.0
2019-Sep-13 09:58N 58°58' W 003°18'1 1.2
2019-Sep-13 09:30N 58°57' W 003°17'816.4
2019-Sep-13 09:00N 58°50' W 003°11'714.4
2019-Sep-13 08:30N 58°44' W 003°18'1019.8
2019-Sep-13 08:00N 58°37' W 003°32'0 0.7
2019-Sep-13 07:30N 58°37' W 003°32'2 3.9
2019-Sep-13 07:00N 58°39' W 003°32'917.5
2019-Sep-13 06:30N 58°47' W 003°31'917.5
2019-Sep-13 06:00N 58°56' W 003°28'611.3
2019-Sep-13 05:30N 58°58' W 003°18'0 0.3
2019-Sep-13 04:59N 58°58' W 003°18'0 0.0
2019-Sep-13 04:29N 58°58' W 003°18'0 0.0
2019-Sep-13 03:59N 58°58' W 003°18'0 0.0
2019-Sep-13 03:29N 58°58' W 003°18'0 0.0
2019-Sep-13 02:59N 58°58' W 003°18'0 0.0
2019-Sep-13 01:59N 58°58' W 003°18'0 0.0
2019-Sep-13 01:29N 58°58' W 003°18'0 0.0
2019-Sep-13 00:59N 58°58' W 003°18'0 0.0
2019-Sep-13 00:29N 58°58' W 003°18'0 0.0
2019-Sep-12 23:59N 58°58' W 003°18'0 0.0
2019-Sep-12 23:29N 58°58' W 003°18'0 0.0
2019-Sep-12 22:59N 58°58' W 003°18'0 0.0
2019-Sep-12 22:29N 58°58' W 003°18'0 0.0
2019-Sep-12 21:59N 58°58' W 003°18'0 0.0
2019-Sep-12 21:29N 58°58' W 003°18'0 0.0
2019-Sep-12 20:59N 58°58' W 003°18'0 0.0
2019-Sep-12 20:29N 58°58' W 003°18'0 0.0
2019-Sep-12 19:59N 58°58' W 003°18'0 0.9
2019-Sep-12 19:30N 58°57' W 003°18'714.5
2019-Sep-12 19:00N 58°52' W 003°28'917.3
2019-Sep-12 18:30N 58°44' W 003°30'714.3
2019-Sep-12 18:00N 58°37' W 003°32'0 0.0
2019-Sep-12 17:30N 58°37' W 003°32'4 7.4
2019-Sep-12 17:00N 58°40' W 003°32'917.5
2019-Sep-12 16:30N 58°49' W 003°30'815.9
2019-Sep-12 16:00N 58°56' W 003°25'4 6.6
2019-Sep-12 15:25N 58°58' W 003°18'0 0.0
2019-Sep-12 14:55N 58°58' W 003°18'0 0.0
2019-Sep-12 14:19N 58°58' W 003°18'0 0.0
2019-Sep-12 13:49N 58°58' W 003°18'0 0.0
2019-Sep-12 13:25N 58°58' W 003°18'0 0.0
2019-Sep-12 12:58N 58°58' W 003°18'0 0.0
2019-Sep-12 12:28N 58°58' W 003°18'0 0.0
2019-Sep-12 11:55N 58°58' W 003°18'0 0.0
2019-Sep-12 11:25N 58°58' W 003°18'0 0.0
2019-Sep-12 10:58N 58°58' W 003°18'0 0.0
2019-Sep-12 10:28N 58°58' W 003°18'0 0.0
2019-Sep-12 09:58N 58°58' W 003°18'0 0.0
2019-Sep-12 09:25N 58°58' W 003°18'1 3.5
2019-Sep-12 09:00N 58°57' W 003°20'815.8
2019-Sep-12 08:30N 58°50' W 003°29'918.5
2019-Sep-12 08:00N 58°41' W 003°31'5 9.2
2019-Sep-12 07:30N 58°37' W 003°32'1 2.4
2019-Sep-12 07:00N 58°38' W 003°32'918.0
2019-Sep-12 06:30N 58°47' W 003°31'918.2
2019-Sep-12 06:00N 58°56' W 003°28'611.2
2019-Sep-12 05:30N 58°58' W 003°18'0 0.3
2019-Sep-12 05:00N 58°58' W 003°18'0 0.0
2019-Sep-12 04:30N 58°58' W 003°18'0 0.0
2019-Sep-12 04:00N 58°58' W 003°18'0 0.0
2019-Sep-12 03:30N 58°58' W 003°18'0 0.0
2019-Sep-12 03:00N 58°58' W 003°18'0 0.0
2019-Sep-12 02:30N 58°58' W 003°18'0 0.0
2019-Sep-12 02:00N 58°58' W 003°18'0 0.0
2019-Sep-12 01:24N 58°58' W 003°18'0 0.0
2019-Sep-12 01:00N 58°58' W 003°18'0 0.0
2019-Sep-12 00:30N 58°58' W 003°18'  

Dump ship's entire track history